Time;durP1;ratioP1;P1;durP2;ratioP2;P2;SDS_P1;SDS_P2;PMS_P1;PMS_P2;Temp;Humidity;BMP_temperature;BMP_pressure;BME280_temperature;BME280_humidity;BME280_pressure;Samples;Min_cycle;Max_cycle;Signal;HPM_P1;HPM_P2
2023/04/18 00:01:05;;;;;;;13.70;7.10;;;;;;;7.40;78.78;101706.83;111105;1212;98062;-62
2023/04/18 00:03:30;;;;;;;16.60;7.40;;;;;;;7.39;78.85;101706.66;110881;1206;140881;-62
2023/04/18 00:05:56;;;;;;;12.10;7.00;;;;;;;7.40;78.90;101708.61;111035;1212;97603;-62
2023/04/18 00:08:22;;;;;;;19.40;8.90;;;;;;;7.39;78.89;101707.20;111104;1206;97715;-62
2023/04/18 00:10:49;;;;;;;16.60;9.20;;;;;;;7.37;78.91;101704.55;110886;1206;139008;-62
2023/04/18 00:13:18;;;;;;;17.00;8.40;;;;;;;7.39;79.08;101708.63;111001;1211;97638;-62
2023/04/18 00:15:45;;;;;;;19.30;8.80;;;;;;;7.40;79.09;101701.85;110929;1222;139897;-62
2023/04/18 00:18:14;;;;;;;16.10;8.50;;;;;;;7.41;79.05;101700.42;111042;1212;97780;-62
2023/04/18 00:20:40;;;;;;;16.30;8.30;;;;;;;7.41;79.09;101700.77;111072;1206;111000;-62
2023/04/18 00:23:06;;;;;;;14.70;7.90;;;;;;;7.40;79.20;101702.56;110825;1206;139676;-64
2023/04/18 00:25:32;;;;;;;17.90;9.50;;;;;;;7.41;79.17;101698.99;111014;1219;97646;-62
2023/04/18 00:27:57;;;;;;;17.60;9.40;;;;;;;7.42;79.24;101699.87;110928;1212;140801;-62
2023/04/18 00:30:23;;;;;;;14.10;7.90;;;;;;;7.42;79.36;101699.86;110968;1206;97616;-64
2023/04/18 00:32:48;;;;;;;18.00;9.50;;;;;;;7.42;79.26;101695.79;111144;1212;97681;-62
2023/04/18 00:35:14;;;;;;;14.10;8.10;;;;;;;7.42;79.32;101697.56;110852;1212;138936;-62
2023/04/18 00:37:39;;;;;;;14.60;8.70;;;;;;;7.43;79.33;101702.16;111059;1209;97645;-62
2023/04/18 00:40:05;;;;;;;19.70;10.00;;;;;;;7.40;79.43;101698.46;110838;1211;139141;-62
2023/04/18 00:42:30;;;;;;;20.70;10.50;;;;;;;7.40;79.48;101698.65;111162;1212;97688;-62
2023/04/18 00:44:56;;;;;;;16.60;9.60;;;;;;;7.40;79.59;101699.89;110957;1206;139903;-62
2023/04/18 00:47:21;;;;;;;17.00;9.60;;;;;;;7.41;79.65;101697.93;110998;1206;97698;-62
2023/04/18 00:49:47;;;;;;;23.00;10.50;;;;;;;7.40;79.65;101694.38;110977;1206;96775;-62
2023/04/18 00:52:13;;;;;;;16.00;9.00;;;;;;;7.42;79.69;101696.85;111093;1212;140791;-62
2023/04/18 00:54:39;;;;;;;18.30;10.20;;;;;;;7.42;79.66;101694.52;110950;1222;99034;-62
2023/04/18 00:57:05;;;;;;;21.80;11.50;;;;;;;7.42;79.74;101693.64;110880;1206;139161;-62
2023/04/18 00:59:34;;;;;;;19.30;9.50;;;;;;;7.45;79.82;101695.73;111111;1206;97565;-62
2023/04/18 01:02:00;;;;;;;19.30;10.20;;;;;;;7.44;79.77;101693.80;111074;1212;97702;-62
2023/04/18 01:04:26;;;;;;;21.00;11.00;;;;;;;7.44;79.86;101692.38;111079;1206;139042;-62
2023/04/18 01:06:53;;;;;;;16.40;10.20;;;;;;;7.44;79.94;101695.21;111028;1210;97606;-62
2023/04/18 01:09:19;;;;;;;17.00;9.70;;;;;;;7.46;79.89;101696.45;110973;1212;140429;-62
2023/04/18 01:11:45;;;;;;;21.50;9.80;;;;;;;7.44;79.87;101691.84;111047;1212;97616;-62
2023/04/18 01:14:10;;;;;;;21.90;11.10;;;;;;;7.42;79.88;101690.80;110980;1206;98890;-62
2023/04/18 01:16:35;;;;;;;19.30;11.00;;;;;;;7.42;79.93;101690.45;110909;1211;138784;-62
2023/04/18 01:19:02;;;;;;;18.70;10.80;;;;;;;7.43;80.02;101692.03;111006;1212;97608;-62
2023/04/18 01:21:42;;;;;;;21.20;10.60;;;;;;;7.43;79.98;101688.66;110902;1206;139568;-62
2023/04/18 01:24:13;;;;;;;17.30;10.60;;;;;;;7.40;80.03;101691.89;111032;1212;97661;-62
2023/04/18 01:26:40;;;;;;;20.10;10.50;;;;;;;7.38;80.05;101691.21;111104;1206;111010;-62
2023/04/18 01:29:06;;;;;;;20.90;10.90;;;;;;;7.35;80.23;101693.56;110910;1210;138857;-62
2023/04/18 01:31:36;;;;;;;25.00;11.20;;;;;;;7.35;80.29;101692.86;111001;1206;97834;-62
2023/04/18 01:34:03;;;;;;;17.90;10.90;;;;;;;7.35;80.37;101694.63;110893;1212;138586;-62
2023/04/18 01:36:28;;;;;;;19.20;10.60;;;;;;;7.34;80.35;101693.23;111094;1206;98024;-62
2023/04/18 01:38:54;;;;;;;21.70;11.80;;;;;;;7.34;80.43;101690.91;110950;1206;138814;-62
2023/04/18 01:41:20;;;;;;;21.20;11.00;;;;;;;7.30;80.46;101695.05;110966;1212;107949;-62
2023/04/18 01:43:45;;;;;;;18.80;11.20;;;;;;;7.31;80.56;101690.59;110999;1211;97611;-62
2023/04/18 01:46:10;;;;;;;19.30;11.50;;;;;;;7.30;80.64;101691.14;110956;1206;140090;-62
2023/04/18 01:48:36;;;;;;;21.20;11.60;;;;;;;7.31;80.63;101692.02;110959;1206;97863;-62
2023/04/18 01:51:01;;;;;;;21.20;11.10;;;;;;;7.31;80.63;101693.08;110927;1218;140917;-62
2023/04/18 01:53:26;;;;;;;23.10;11.10;;;;;;;7.30;80.75;101692.74;111031;1212;97732;-62
2023/04/18 01:55:51;;;;;;;22.30;11.60;;;;;;;7.28;80.74;101694.73;111033;1209;100982;-62
2023/04/18 01:58:21;;;;;;;19.60;10.70;;;;;;;7.28;80.93;101692.95;110943;1212;140955;-62
2023/04/18 02:00:47;;;;;;;22.50;11.80;;;;;;;7.28;81.00;101691.52;110977;1222;98356;-62
2023/04/18 02:03:12;;;;;;;23.30;11.40;;;;;;;7.29;80.94;101691.16;110920;1209;142273;-62
2023/04/18 02:05:37;;;;;;;22.70;12.30;;;;;;;7.29;80.97;101691.15;111105;1205;97601;-62
2023/04/18 02:08:03;;;;;;;22.90;11.70;;;;;;;7.29;80.95;101690.45;111022;1213;97621;-62
2023/04/18 02:10:30;;;;;;;19.60;11.40;;;;;;;7.27;81.14;101688.88;110935;1212;139474;-62
2023/04/18 02:12:55;;;;;;;18.00;11.10;;;;;;;7.26;81.10;101689.77;111029;1206;111613;-63
2023/04/18 02:15:22;;;;;;;25.10;11.80;;;;;;;7.25;81.20;101686.59;110929;1210;139678;-62
2023/04/18 02:17:47;;;;;;;19.50;11.70;;;;;;;7.26;81.26;101690.67;111063;1206;97783;-62
2023/04/18 02:20:13;;;;;;;19.50;11.40;;;;;;;7.26;81.34;101690.66;111096;1218;98279;-62
2023/04/18 02:22:38;;;;;;;20.20;10.90;;;;;;;7.25;81.31;101688.89;110917;1212;139094;-62
2023/04/18 02:25:05;;;;;;;19.90;10.90;;;;;;;7.24;81.38;101692.11;111110;1206;96570;-63
2023/04/18 02:27:30;;;;;;;20.10;11.60;;;;;;;7.24;81.34;101688.55;111105;1206;139241;-62
2023/04/18 02:29:55;;;;;;;21.40;11.80;;;;;;;7.21;81.47;101686.10;111036;1211;97784;-63
2023/04/18 02:32:20;;;;;;;23.00;12.00;;;;;;;7.22;81.52;101688.77;111047;1206;97591;-62
2023/04/18 02:34:46;;;;;;;20.40;11.20;;;;;;;7.19;81.53;101688.09;110861;1218;139262;-63
2023/04/18 02:37:11;;;;;;;21.00;12.00;;;;;;;7.18;81.58;101684.19;111029;1210;97595;-62
2023/04/18 02:39:36;;;;;;;23.10;12.60;;;;;;;7.16;81.74;101682.08;110850;1206;139631;-62
2023/04/18 02:42:01;;;;;;;24.60;12.50;;;;;;;7.17;81.83;101687.40;111114;1210;97656;-62
2023/04/18 02:44:27;;;;;;;22.40;12.30;;;;;;;7.17;81.73;101684.73;110984;1212;96571;-62
2023/04/18 02:46:52;;;;;;;23.50;13.00;;;;;;;7.17;81.84;101685.80;110878;1209;140623;-63
2023/04/18 02:49:17;;;;;;;20.90;11.80;;;;;;;7.17;81.78;101688.48;111089;1211;97192;-63
2023/04/18 02:51:43;;;;;;;24.10;13.00;;;;;;;7.15;81.93;101689.20;110849;1211;139138;-63
2023/04/18 02:54:08;;;;;;;19.30;10.20;;;;;;;7.12;82.03;101689.95;111093;1212;97642;-62
2023/04/18 02:56:38;;;;;;;23.60;11.60;;;;;;;7.12;82.11;101692.96;111029;1205;97608;-62
2023/04/18 02:59:05;;;;;;;26.90;12.50;;;;;;;7.12;82.21;101689.94;110954;1206;139940;-62
2023/04/18 03:01:31;;;;;;;21.20;11.70;;;;;;;7.15;82.22;101691.52;110989;1206;97566;-63
2023/04/18 03:03:56;;;;;;;23.60;13.90;;;;;;;7.14;82.21;101687.79;110901;1212;139106;-63
2023/04/18 03:06:21;;;;;;;25.20;13.00;;;;;;;7.15;82.39;101691.33;111155;1206;97581;-62
2023/04/18 03:08:46;;;;;;;20.00;12.50;;;;;;;7.16;82.41;101689.36;111030;1206;98092;-63
2023/04/18 03:11:12;;;;;;;23.40;12.50;;;;;;;7.16;82.33;101690.98;110950;1211;138406;-62
2023/04/18 03:13:37;;;;;;;21.40;13.00;;;;;;;7.13;82.42;101691.89;110991;1211;97678;-62
2023/04/18 03:16:02;;;;;;;28.60;13.40;;;;;;;7.13;82.58;101688.16;110967;1210;138899;-63
2023/04/18 03:18:28;;;;;;;26.00;12.20;;;;;;;7.14;82.55;101690.81;111021;1206;108217;-63
2023/04/18 03:20:53;;;;;;;24.00;13.40;;;;;;;7.13;82.51;101692.07;110850;1215;140327;-62
2023/04/18 03:23:18;;;;;;;25.50;12.90;;;;;;;7.14;82.70;101691.70;111127;1211;97662;-62
2023/04/18 03:25:44;;;;;;;22.10;12.70;;;;;;;7.15;82.67;101694.36;111013;1206;99226;-63
2023/04/18 03:28:09;;;;;;;22.00;11.90;;;;;;;7.15;82.68;101693.11;110928;1212;138606;-63
2023/04/18 03:30:34;;;;;;;23.70;13.90;;;;;;;7.15;82.68;101691.87;110962;1206;97603;-63
2023/04/18 03:33:01;;;;;;;24.70;13.70;;;;;;;7.13;82.65;101692.25;110973;1206;139367;-62
2023/04/18 03:35:27;;;;;;;22.80;12.60;;;;;;;7.14;82.83;101693.84;110894;1211;108227;-63
2023/04/18 03:37:52;;;;;;;24.90;13.10;;;;;;;7.15;82.92;101691.70;111006;1212;97675;-63
2023/04/18 03:40:17;;;;;;;25.90;12.40;;;;;;;7.18;82.98;101695.39;111014;1206;139035;-62
2023/04/18 03:42:43;;;;;;;25.40;13.00;;;;;;;7.19;82.85;101695.73;111028;1211;97979;-63
2023/04/18 03:45:09;;;;;;;21.00;11.40;;;;;;;7.19;82.89;101697.33;110909;1209;139656;-62
2023/04/18 03:47:34;;;;;;;23.40;13.00;;;;;;;7.18;83.16;101697.88;111041;1206;97998;-63
2023/04/18 03:49:59;;;;;;;23.70;13.00;;;;;;;7.21;83.19;101698.73;111007;1227;97661;-63
2023/04/18 03:52:25;;;;;;;24.30;12.60;;;;;;;7.22;83.13;101697.11;111002;1211;139239;-63
2023/04/18 03:54:50;;;;;;;23.80;12.30;;;;;;;7.23;83.18;101695.14;110996;1211;97724;-63
2023/04/18 03:57:15;;;;;;;26.30;13.00;;;;;;;7.24;83.19;101699.40;111033;1211;139259;-62
2023/04/18 03:59:41;;;;;;;22.30;12.50;;;;;;;7.26;83.36;101697.06;111062;1207;97636;-63
2023/04/18 04:02:06;;;;;;;27.50;13.80;;;;;;;7.27;83.31;101697.41;111046;1206;97838;-63
2023/04/18 04:04:31;;;;;;;21.80;12.30;;;;;;;7.28;83.39;101696.85;110958;1206;139222;-62
2023/04/18 04:06:57;;;;;;;27.00;14.00;;;;;;;7.29;83.46;101694.17;111064;1211;97645;-63
2023/04/18 04:09:22;;;;;;;27.30;13.60;;;;;;;7.30;83.47;101695.05;111067;1205;138869;-63
2023/04/18 04:11:47;;;;;;;29.70;13.90;;;;;;;7.33;83.46;101697.16;111008;1211;97981;-63
2023/04/18 04:14:12;;;;;;;20.40;11.80;;;;;;;7.36;83.57;101700.48;111090;1206;97661;-63
2023/04/18 04:16:38;;;;;;;22.90;12.40;;;;;;;7.37;83.62;101697.27;110887;1220;138819;-63
2023/04/18 04:19:03;;;;;;;21.30;12.70;;;;;;;7.37;83.67;101701.90;111017;1206;97605;-63
2023/04/18 04:21:30;;;;;;;23.20;13.10;;;;;;;7.37;83.59;101699.95;110991;1212;138647;-63
2023/04/18 04:23:55;;;;;;;26.90;13.30;;;;;;;7.37;83.65;101704.74;111068;1222;111461;-63
2023/04/18 04:26:22;;;;;;;24.40;13.20;;;;;;;7.35;83.75;101706.18;111047;1211;97700;-62
2023/04/18 04:28:48;;;;;;;21.30;12.50;;;;;;;7.37;83.81;101706.69;111007;1205;139246;-62
2023/04/18 04:31:15;;;;;;;23.90;14.20;;;;;;;7.40;83.89;101709.14;111053;1207;98104;-62
2023/04/18 04:33:41;;;;;;;20.20;12.30;;;;;;;7.41;83.88;101712.15;110916;1210;140425;-62
2023/04/18 04:36:08;;;;;;;25.00;13.80;;;;;;;7.45;83.99;101713.70;111166;1206;98628;-61
2023/04/18 04:38:36;;;;;;;25.10;13.60;;;;;;;7.47;84.03;101708.34;111189;1205;97632;-62
2023/04/18 04:41:05;;;;;;;23.70;12.60;;;;;;;7.47;84.09;101713.67;110972;1206;139096;-62
2023/04/18 04:43:31;;;;;;;22.00;12.50;;;;;;;7.48;84.05;101710.45;111228;1210;110756;-62
2023/04/18 04:45:56;;;;;;;23.00;13.00;;;;;;;7.48;84.10;101710.45;110940;1206;138791;-61
2023/04/18 04:48:23;;;;;;;26.60;14.50;;;;;;;7.46;84.22;101708.35;111143;1211;97760;-62
2023/04/18 04:50:57;;;;;;;29.30;12.70;;;;;;;7.48;84.29;101708.15;111027;1211;97745;-62
2023/04/18 04:53:24;;;;;;;24.30;12.90;;;;;;;7.50;84.36;101713.98;111109;1206;110721;-63
2023/04/18 04:55:50;;;;;;;21.90;12.60;;;;;;;7.53;84.35;101710.94;111146;1211;96562;-62
2023/04/18 04:58:16;;;;;;;24.40;12.60;;;;;;;7.54;84.29;101713.58;110920;1210;139975;-62
2023/04/18 05:00:41;;;;;;;23.50;12.90;;;;;;;7.54;84.36;101711.63;111018;1206;97968;-62
2023/04/18 05:03:07;;;;;;;27.40;13.60;;;;;;;7.52;84.38;101713.79;110950;1211;138868;-62
2023/04/18 05:05:32;;;;;;;20.70;11.90;;;;;;;7.53;84.48;101714.66;110992;1207;97706;-62
2023/04/18 05:07:58;;;;;;;25.20;14.10;;;;;;;7.54;84.51;101714.48;111056;1206;99043;-62
2023/04/18 05:10:23;;;;;;;23.60;12.70;;;;;;;7.55;84.57;101717.83;110885;1211;138929;-62
2023/04/18 05:12:48;;;;;;;22.70;11.90;;;;;;;7.57;84.60;101721.73;111099;1211;97594;-62
2023/04/18 05:15:15;;;;;;;24.50;12.50;;;;;;;7.57;84.59;101725.45;110983;1222;138769;-62
2023/04/18 05:17:40;;;;;;;23.20;13.50;;;;;;;7.58;84.72;101724.73;111004;1210;97606;-62
2023/04/18 05:20:07;;;;;;;24.80;13.30;;;;;;;7.60;84.73;101727.73;111105;1206;96443;-62
2023/04/18 05:22:32;;;;;;;24.70;12.80;;;;;;;7.64;84.78;101726.96;110930;1205;139004;-62
2023/04/18 05:24:57;;;;;;;24.60;12.30;;;;;;;7.68;84.74;101724.59;111089;1205;99080;-62
2023/04/18 05:27:22;;;;;;;22.80;12.20;;;;;;;7.69;84.73;101727.77;111082;1206;140467;-62
2023/04/18 05:29:49;;;;;;;25.80;13.90;;;;;;;7.73;84.80;101728.26;111012;1211;97668;-62
2023/04/18 05:32:14;;;;;;;25.70;12.40;;;;;;;7.76;84.76;101726.96;110999;1211;98888;-62
2023/04/18 05:34:41;;;;;;;25.50;13.10;;;;;;;7.78;84.80;101728.34;110954;1206;138810;-62
2023/04/18 05:37:06;;;;;;;25.90;12.50;;;;;;;7.80;84.87;101729.73;111090;1209;97925;-62
2023/04/18 05:39:31;;;;;;;25.60;12.00;;;;;;;7.84;84.90;101731.63;110811;1213;139723;-62
2023/04/18 05:41:57;;;;;;;29.50;12.30;;;;;;;7.89;84.97;101730.48;111086;1209;97672;-62
2023/04/18 05:44:23;;;;;;;26.60;13.40;;;;;;;7.93;84.93;101729.88;110965;1206;97652;-62
2023/04/18 05:46:50;;;;;;;23.00;12.40;;;;;;;7.96;84.97;101732.15;111108;1210;139285;-62
2023/04/18 05:49:17;;;;;;;27.20;13.00;;;;;;;8.00;84.96;101726.56;110988;1215;99998;-62
2023/04/18 05:51:43;;;;;;;22.80;12.50;;;;;;;8.01;84.99;101728.51;111159;1211;138691;-63
2023/04/18 05:54:08;;;;;;;29.00;13.50;;;;;;;8.05;84.92;101727.73;110998;1206;97767;-63
2023/04/18 05:56:33;;;;;;;24.60;12.60;;;;;;;8.11;85.02;101724.96;111005;1211;97671;-63
2023/04/18 05:58:59;;;;;;;26.10;12.60;;;;;;;8.21;85.11;101723.04;110875;1211;138718;-62
2023/04/18 06:01:24;;;;;;;22.20;13.20;;;;;;;8.28;85.08;101729.15;110998;1210;97594;-65
2023/04/18 06:03:50;;;;;;;26.10;13.90;;;;;;;8.27;84.89;101726.48;110917;1206;139339;-62
2023/04/18 06:06:15;;;;;;;27.10;12.10;;;;;;;8.29;85.01;101728.07;111039;1206;97642;-68
2023/04/18 06:08:40;;;;;;;26.90;13.70;;;;;;;8.34;85.00;101721.23;111115;1211;97856;-64
2023/04/18 06:11:06;;;;;;;20.70;11.80;;;;;;;8.37;85.00;101725.27;110928;1211;139540;-64
2023/04/18 06:13:31;;;;;;;24.30;12.00;;;;;;;8.43;84.96;101724.83;110944;1212;97630;-65
2023/04/18 06:15:57;;;;;;;28.20;14.10;;;;;;;8.45;84.91;101727.47;110832;1206;138931;-64
2023/04/18 06:18:22;;;;;;;21.60;13.40;;;;;;;8.51;85.09;101726.83;110965;1206;97632;-65
2023/04/18 06:20:48;;;;;;;25.20;12.70;;;;;;;8.60;85.05;101733.09;110854;1211;97790;-65
2023/04/18 06:23:14;;;;;;;24.70;12.10;;;;;;;8.66;84.98;101734.57;110769;1205;138392;-65
2023/04/18 06:25:41;;;;;;;23.80;12.80;;;;;;;8.73;85.07;101736.94;110800;1208;99340;-65
2023/04/18 06:28:06;;;;;;;22.40;12.30;;;;;;;8.81;85.02;101736.08;110747;1205;138561;-65
2023/04/18 06:30:31;;;;;;;26.40;12.70;;;;;;;8.82;84.83;101738.92;110810;1207;98094;-65
2023/04/18 06:32:57;;;;;;;24.20;12.60;;;;;;;8.82;84.81;101740.52;110755;1206;138644;-63
2023/04/18 06:35:22;;;;;;;25.40;13.00;;;;;;;8.81;84.61;101740.54;110884;1211;97643;-65
2023/04/18 06:37:47;;;;;;;31.00;13.30;;;;;;;8.83;84.76;101741.58;110871;1211;97732;-64
2023/04/18 06:40:13;;;;;;;26.10;14.20;;;;;;;8.93;84.77;101745.14;110870;1209;141297;-64
2023/04/18 06:42:40;;;;;;;28.00;13.90;;;;;;;9.00;84.72;101748.02;110903;1206;97750;-64
2023/04/18 06:45:06;;;;;;;26.70;13.00;;;;;;;9.08;84.74;101742.51;110802;1205;139756;-64
2023/04/18 06:47:32;;;;;;;24.40;12.20;;;;;;;9.19;84.68;101741.23;110924;1208;97603;-65
2023/04/18 06:49:57;;;;;;;31.70;13.00;;;;;;;9.19;84.40;101748.36;111000;1206;97722;-64
2023/04/18 06:52:22;;;;;;;27.20;13.50;;;;;;;9.19;84.39;101746.94;110870;1212;138781;-64
2023/04/18 06:54:47;;;;;;;20.90;12.40;;;;;;;9.26;84.42;101745.54;110974;1211;97690;-65
2023/04/18 06:57:13;;;;;;;27.20;12.20;;;;;;;9.33;84.42;101742.55;110894;1205;140407;-65
2023/04/18 06:59:40;;;;;;;29.70;14.40;;;;;;;9.40;84.26;101746.67;110899;1207;97696;-64
2023/04/18 07:02:06;;;;;;;23.00;13.20;;;;;;;9.42;84.18;101744.66;110974;1211;99009;-64
2023/04/18 07:04:32;;;;;;;26.40;13.30;;;;;;;9.47;84.19;101748.68;110905;1209;139732;-64
2023/04/18 07:06:57;;;;;;;28.00;12.90;;;;;;;9.53;84.12;101747.13;110995;1206;97655;-64
2023/04/18 07:09:22;;;;;;;27.00;12.80;;;;;;;9.56;83.95;101752.05;110876;1211;140440;-64
2023/04/18 07:11:49;;;;;;;26.30;13.20;;;;;;;9.62;84.09;101759.05;111026;1211;97701;-64
2023/04/18 07:14:15;;;;;;;29.20;12.90;;;;;;;9.66;83.73;101756.11;111093;1206;98879;-65
2023/04/18 07:16:40;;;;;;;27.40;13.00;;;;;;;9.63;83.62;101758.14;110961;1206;140104;-64
2023/04/18 07:19:06;;;;;;;24.90;13.80;;;;;;;9.63;83.59;101758.51;111117;1211;98761;-64
2023/04/18 07:21:31;;;;;;;19.30;11.80;;;;;;;9.60;83.38;101761.25;110857;1211;141164;-64
2023/04/18 07:23:57;;;;;;;28.50;13.60;;;;;;;9.58;83.23;101769.50;110991;1211;97702;-65
2023/04/18 07:26:22;;;;;;;23.80;12.10;;;;;;;9.61;83.29;101768.54;111076;1211;97591;-65
2023/04/18 07:28:48;;;;;;;24.70;12.70;;;;;;;9.66;83.40;101767.36;110883;1211;140994;-65
2023/04/18 07:31:15;;;;;;;28.80;13.70;;;;;;;9.73;83.33;101769.86;111040;1211;97362;-64
2023/04/18 07:33:42;;;;;;;27.20;12.90;;;;;;;9.83;83.20;101770.73;110835;1211;139745;-64
2023/04/18 07:36:08;;;;;;;25.40;13.20;;;;;;;9.85;82.85;101771.58;110983;1206;97863;-64
2023/04/18 07:38:34;;;;;;;21.70;11.70;;;;;;;9.77;82.63;101773.73;110967;1211;97673;-64
2023/04/18 07:41:02;;;;;;;26.30;13.10;;;;;;;9.81;82.73;101777.37;110871;1209;138907;-64
2023/04/18 07:43:27;;;;;;;24.10;12.30;;;;;;;9.82;82.57;101775.93;111019;1221;98092;-64
2023/04/18 07:45:53;;;;;;;23.30;12.10;;;;;;;9.82;82.47;101774.85;110871;1211;140118;-64
2023/04/18 07:48:23;;;;;;;25.90;14.10;;;;;;;9.86;82.60;101778.69;111140;1207;97717;-64
2023/04/18 07:50:49;;;;;;;23.70;13.10;;;;;;;9.92;82.45;101779.44;110239;1211;97646;-63
2023/04/18 07:53:14;;;;;;;25.60;11.70;;;;;;;9.96;82.39;101777.39;110722;1209;139282;-63
2023/04/18 07:55:39;;;;;;;29.50;13.60;;;;;;;10.00;82.30;101782.30;110679;1211;97893;-63
2023/04/18 07:58:05;;;;;;;23.00;12.70;;;;;;;10.06;82.44;101783.42;110594;1217;140076;-63
2023/04/18 08:00:31;;;;;;;25.60;12.80;;;;;;;10.13;82.35;101782.02;110805;1205;97748;-63
2023/04/18 08:02:57;;;;;;;22.80;12.70;;;;;;;10.19;82.36;101782.41;110705;1210;138817;-60
2023/04/18 08:05:24;;;;;;;33.70;15.90;;;;;;;10.24;82.13;101780.17;111309;1211;99202;-64
2023/04/18 08:07:49;;;;;;;22.70;12.60;;;;;;;10.27;82.03;101785.11;110737;1206;98216;-63
2023/04/18 08:10:15;;;;;;;24.50;13.80;;;;;;;10.24;81.82;101785.35;110800;1211;138886;-63
2023/04/18 08:12:41;;;;;;;25.40;13.10;;;;;;;10.27;81.81;101786.01;110820;1206;97822;-64
2023/04/18 08:15:12;;;;;;;27.60;12.50;;;;;;;10.31;81.84;101789.81;112936;1206;139307;-63
2023/04/18 08:17:37;;;;;;;32.20;14.00;;;;;;;10.40;81.87;101789.21;110980;1211;108582;-64
2023/04/18 08:20:06;;;;;;;23.70;12.40;;;;;;;10.56;82.05;101787.94;110958;1211;97589;-64
2023/04/18 08:22:32;;;;;;;22.30;13.40;;;;;;;10.64;81.61;101789.70;110799;1210;139612;-64
2023/04/18 08:24:59;;;;;;;27.00;12.70;;;;;;;10.68;81.69;101789.75;110948;1211;97732;-63
2023/04/18 08:27:25;;;;;;;23.00;12.40;;;;;;;10.76;81.64;101792.05;110641;1206;138885;-61
2023/04/18 08:29:50;;;;;;;24.90;12.00;;;;;;;10.86;81.68;101787.52;110914;1206;97729;-60
2023/04/18 08:32:16;;;;;;;19.80;11.60;;;;;;;10.92;81.35;101783.59;110853;1222;98876;-61
2023/04/18 08:34:41;;;;;;;22.60;13.60;;;;;;;10.91;81.14;101782.20;110822;1211;139140;-61
2023/04/18 08:37:07;;;;;;;23.60;12.40;;;;;;;10.96;81.20;101786.70;110910;1211;107834;-61
2023/04/18 08:39:32;;;;;;;23.20;11.70;;;;;;;11.10;81.27;101788.84;110619;1210;140969;-61
2023/04/18 08:41:59;;;;;;;24.90;12.90;;;;;;;11.07;80.44;101784.08;110942;1205;97897;-60
2023/04/18 08:44:28;;;;;;;25.40;12.40;;;;;;;11.06;80.58;101788.58;110810;1211;99894;-61
2023/04/18 08:46:54;;;;;;;24.80;11.90;;;;;;;11.16;80.59;101792.97;110897;1206;138841;-61
2023/04/18 08:49:21;;;;;;;22.20;12.80;;;;;;;11.26;80.63;101791.06;111041;1210;98069;-61
2023/04/18 08:51:50;;;;;;;23.90;12.30;;;;;;;11.37;80.57;101788.27;110775;1209;140862;-61
2023/04/18 08:54:17;;;;;;;22.80;12.30;;;;;;;11.47;80.53;101785.81;110912;1210;111709;-60
2023/04/18 08:56:42;;;;;;;20.30;11.90;;;;;;;11.55;80.12;101787.39;110913;1206;97732;-63
2023/04/18 08:59:10;;;;;;;21.70;12.30;;;;;;;11.57;80.02;101786.06;110604;1211;141074;-61
2023/04/18 09:01:51;;;;;;;27.00;11.70;;;;;;;11.66;80.01;101789.92;110924;1210;97672;-61
2023/04/18 09:04:36;;;;;;;18.70;11.00;;;;;;;11.74;79.90;101785.91;110779;1211;139872;-66
2023/04/18 09:07:03;;;;;;;24.00;12.30;;;;;;;11.87;79.92;101788.97;110774;1211;100520;-61
2023/04/18 09:09:52;;;;;;;18.80;11.90;;;;;;;11.96;79.74;101787.25;111013;1206;139312;-62
2023/04/18 09:12:23;;;;;;;21.30;12.20;;;;;;;12.04;79.45;101787.52;110905;1206;97677;-62
2023/04/18 09:14:50;;;;;;;;;;;;;;;12.06;79.10;101783.35;110646;1211;99506;-62
2023/04/18 09:17:36;;;;;;;23.80;11.40;;;;;;;12.10;79.18;101786.98;110583;1211;125457;-64
2023/04/18 09:20:04;;;;;;;27.90;10.40;;;;;;;12.26;79.18;101783.25;110691;1210;102081;-61
2023/04/18 09:22:50;;;;;;;23.00;11.20;;;;;;;12.39;78.99;101778.54;110694;1211;140057;-63
2023/04/18 09:25:34;;;;;;;20.50;11.70;;;;;;;12.50;78.84;101775.31;111135;1211;97978;-60
2023/04/18 09:28:01;;;;;;;16.70;10.80;;;;;;;12.63;78.48;101775.20;110730;1211;139528;-61
2023/04/18 09:30:40;;;;;;;16.90;10.00;;;;;;;12.70;78.24;101775.00;113144;1205;97588;-61
2023/04/18 09:33:35;;;;;;;21.00;11.60;;;;;;;12.81;77.99;101772.63;113060;1206;139088;-61
2023/04/18 09:36:21;;;;;;;19.90;10.50;;;;;;;12.86;77.57;101778.92;112738;1208;107536;-62
2023/04/18 09:38:48;;;;;;;22.20;11.30;;;;;;;12.77;76.33;101778.34;110833;1211;97687;-63
2023/04/18 09:41:17;;;;;;;17.90;10.20;;;;;;;12.67;76.16;101779.74;110914;1206;139240;-61
2023/04/18 09:43:44;;;;;;;19.10;11.30;;;;;;;12.73;76.47;101779.91;110909;1211;110964;-63
2023/04/18 09:46:09;;;;;;;17.30;10.70;;;;;;;12.85;76.31;101780.76;110887;1210;139577;-63
2023/04/18 09:48:35;;;;;;;19.40;9.40;;;;;;;12.95;76.34;101779.84;110929;1205;100215;-63
2023/04/18 09:51:05;;;;;;;20.60;10.70;;;;;;;13.02;75.69;101781.92;110785;1206;139134;-63
2023/04/18 09:53:30;;;;;;;20.10;10.20;;;;;;;12.98;75.57;101784.03;110746;1206;111765;-63
2023/04/18 09:55:58;;;;;;;21.60;11.00;;;;;;;12.97;74.98;101783.35;110821;1211;97652;-62
2023/04/18 09:58:30;;;;;;;23.30;11.20;;;;;;;12.93;74.85;101782.07;110819;1208;141598;-63
2023/04/18 10:01:07;;;;;;;23.20;11.10;;;;;;;12.87;74.51;101779.75;110781;1213;97768;-61
2023/04/18 10:03:45;;;;;;;17.40;10.70;;;;;;;12.84;74.26;101778.63;110767;1209;139302;-61
2023/04/18 10:06:15;;;;;;;26.10;12.00;;;;;;;12.87;74.56;101776.00;110929;1211;110800;-61
2023/04/18 10:08:41;;;;;;;21.70;12.30;;;;;;;12.97;74.53;101775.31;110901;1211;99957;-61
2023/04/18 10:11:06;;;;;;;21.00;11.70;;;;;;;12.99;74.41;101779.15;110782;1206;139497;-61
2023/04/18 10:13:34;;;;;;;21.00;10.70;;;;;;;13.04;74.19;101777.52;110955;1206;97741;-62
2023/04/18 10:16:00;;;;;;;24.50;12.30;;;;;;;13.03;74.16;101775.42;111026;1206;139684;-64
2023/04/18 10:18:25;;;;;;;24.10;10.80;;;;;;;13.09;74.24;101771.79;110936;1210;97688;-62
2023/04/18 10:21:00;;;;;;;21.00;10.70;;;;;;;13.21;74.14;101772.65;110972;1211;97951;-62
2023/04/18 10:23:34;;;;;;;21.80;12.40;;;;;;;13.16;73.72;101772.79;110931;1211;97681;-62
2023/04/18 10:26:03;;;;;;;18.30;10.20;;;;;;;13.12;73.47;101771.88;110866;1211;111597;-63
2023/04/18 10:28:53;;;;;;;23.50;11.10;;;;;;;13.08;73.52;101771.27;112293;1210;139392;-60
2023/04/18 10:31:20;;;;;;;25.60;11.20;;;;;;;13.05;72.94;101763.86;110951;1212;107457;-64
2023/04/18 10:33:59;;;;;;;20.40;11.50;;;;;;;13.01;73.15;101767.60;110846;1224;139586;-61
2023/04/18 10:36:27;;;;;;;19.70;10.90;;;;;;;13.06;73.05;101761.29;111000;1208;98228;-62
2023/04/18 10:38:55;;;;;;;20.60;10.90;;;;;;;13.15;73.25;101760.98;110900;1206;111616;-61
2023/04/18 10:41:30;;;;;;;20.80;11.20;;;;;;;13.29;73.31;101754.92;110933;1221;139309;-62
2023/04/18 10:44:16;;;;;;;19.30;11.40;;;;;;;13.33;72.58;101753.52;110950;1211;108310;-62
2023/04/18 10:46:50;;;;;;;19.00;11.70;;;;;;;13.27;72.38;101755.52;110704;1220;139739;-62
2023/04/18 10:49:26;;;;;;;21.80;11.00;;;;;;;13.21;72.10;101761.49;110835;1211;97607;-62
2023/04/18 10:51:54;;;;;;;17.30;11.60;;;;;;;13.21;71.91;101760.77;110719;1206;139737;-62
2023/04/18 10:54:38;;;;;;;21.10;11.90;;;;;;;13.22;71.92;101758.23;110921;1211;100107;-61
2023/04/18 10:57:07;;;;;;;20.50;12.00;;;;;;;13.24;71.80;101754.73;110765;1205;139091;-62
2023/04/18 10:59:39;;;;;;;18.50;10.60;;;;;;;13.30;71.90;101752.52;110955;1206;97585;-62
2023/04/18 11:02:22;;;;;;;19.00;10.30;;;;;;;13.28;71.36;101754.07;110829;1221;97917;-62
2023/04/18 11:04:52;;;;;;;22.70;12.20;;;;;;;13.28;71.46;101753.50;110797;1219;138878;-61